sensor_id;sensor_type;location;lat;lon;timestamp;pressure;altitude;pressure_sealevel;temperature;humidity
18765;BME280;9511;54.242;12.448;2023-07-31T03:05:52;100587.97;;;12.47;100.00
18765;BME280;9511;54.242;12.448;2023-07-31T03:08:20;100595.09;;;12.52;100.00
18765;BME280;9511;54.242;12.448;2023-07-31T03:10:47;100599.47;;;12.49;100.00
18765;BME280;9511;54.242;12.448;2023-07-31T03:13:14;100587.94;;;12.44;100.00
18765;BME280;9511;54.242;12.448;2023-07-31T03:15:42;100587.06;;;12.45;100.00
18765;BME280;9511;54.242;12.448;2023-07-31T03:18:09;100587.09;;;12.50;100.00
18765;BME280;9511;54.242;12.448;2023-07-31T03:20:36;100581.75;;;12.45;100.00
18765;BME280;9511;54.242;12.448;2023-07-31T03:23:05;100573.81;;;12.48;100.00
18765;BME280;9511;54.242;12.448;2023-07-31T03:25:32;100566.75;;;12.47;100.00
18765;BME280;9511;54.242;12.448;2023-07-31T03:27:59;100576.47;;;12.47;100.00
18765;BME280;9511;54.242;12.448;2023-07-31T03:30:27;100576.44;;;12.45;100.00
18765;BME280;9511;54.242;12.448;2023-07-31T03:32:54;100571.09;;;12.44;100.00
18765;BME280;9511;54.242;12.448;2023-07-31T03:35:21;100565.84;;;12.48;100.00
18765;BME280;9511;54.242;12.448;2023-07-31T03:37:48;100568.56;;;12.52;100.00
18765;BME280;9511;54.242;12.448;2023-07-31T03:40:17;100575.66;;;12.54;100.00
18765;BME280;9511;54.242;12.448;2023-07-31T03:42:44;100565.06;;;12.56;100.00
18765;BME280;9511;54.242;12.448;2023-07-31T03:45:12;100572.19;;;12.57;100.00
18765;BME280;9511;54.242;12.448;2023-07-31T03:47:39;100572.22;;;12.61;100.00
18765;BME280;9511;54.242;12.448;2023-07-31T03:50:07;100567.75;;;12.57;100.00
18765;BME280;9511;54.242;12.448;2023-07-31T03:52:34;100564.25;;;12.60;100.00
18765;BME280;9511;54.242;12.448;2023-07-31T03:55:02;100566.91;;;12.60;100.00
18765;BME280;9511;54.242;12.448;2023-07-31T03:57:30;100559.88;;;12.62;100.00
18765;BME280;9511;54.242;12.448;2023-07-31T03:59:58;100556.38;;;12.66;100.00
18765;BME280;9511;54.242;12.448;2023-07-31T04:02:25;100555.47;;;12.64;100.00
18765;BME280;9511;54.242;12.448;2023-07-31T04:04:53;100559.00;;;12.64;100.00
18765;BME280;9511;54.242;12.448;2023-07-31T04:07:20;100556.44;;;12.72;100.00
18765;BME280;9511;54.242;12.448;2023-07-31T04:09:47;100545.88;;;12.75;100.00
18765;BME280;9511;54.242;12.448;2023-07-31T04:12:15;100547.72;;;12.79;100.00
18765;BME280;9511;54.242;12.448;2023-07-31T04:14:43;100540.63;;;12.80;100.00
18765;BME280;9511;54.242;12.448;2023-07-31T04:17:10;100537.09;;;12.81;100.00
18765;BME280;9511;54.242;12.448;2023-07-31T04:19:38;100538.00;;;12.83;100.00
18765;BME280;9511;54.242;12.448;2023-07-31T04:22:05;100532.81;;;12.90;100.00
18765;BME280;9511;54.242;12.448;2023-07-31T04:24:32;100528.41;;;12.95;100.00
18765;BME280;9511;54.242;12.448;2023-07-31T04:27:00;100526.69;;;12.97;100.00
18765;BME280;9511;54.242;12.448;2023-07-31T04:29:27;100523.19;;;13.01;100.00
18765;BME280;9511;54.242;12.448;2023-07-31T04:31:56;100516.97;;;12.98;100.00
18765;BME280;9511;54.242;12.448;2023-07-31T04:34:23;100519.69;;;13.06;100.00
18765;BME280;9511;54.242;12.448;2023-07-31T04:36:51;100510.91;;;13.10;100.00
18765;BME280;9511;54.242;12.448;2023-07-31T04:39:18;100497.56;;;13.05;100.00
18765;BME280;9511;54.242;12.448;2023-07-31T04:41:45;100505.66;;;13.16;100.00
18765;BME280;9511;54.242;12.448;2023-07-31T04:44:12;100489.66;;;13.10;100.00
18765;BME280;9511;54.242;12.448;2023-07-31T04:46:40;100494.97;;;13.10;100.00
18765;BME280;9511;54.242;12.448;2023-07-31T04:49:08;100494.13;;;13.14;100.00
18765;BME280;9511;54.242;12.448;2023-07-31T04:51:36;100493.19;;;13.10;100.00
18765;BME280;9511;54.242;12.448;2023-07-31T04:54:03;100489.59;;;13.07;100.00
18765;BME280;9511;54.242;12.448;2023-07-31T04:56:30;100483.50;;;13.15;100.00
18765;BME280;9511;54.242;12.448;2023-07-31T04:58:57;100481.75;;;13.14;100.00
18765;BME280;9511;54.242;12.448;2023-07-31T05:01:25;100486.16;;;13.17;100.00
18765;BME280;9511;54.242;12.448;2023-07-31T05:03:52;100473.78;;;13.19;100.00
18765;BME280;9511;54.242;12.448;2023-07-31T05:06:21;100470.25;;;13.18;100.00
18765;BME280;9511;54.242;12.448;2023-07-31T05:08:48;100482.72;;;13.24;100.00
18765;BME280;9511;54.242;12.448;2023-07-31T05:11:15;100483.66;;;13.26;100.00
18765;BME280;9511;54.242;12.448;2023-07-31T05:13:43;100485.44;;;13.25;100.00
18765;BME280;9511;54.242;12.448;2023-07-31T05:16:10;100480.97;;;13.24;100.00
18765;BME280;9511;54.242;12.448;2023-07-31T05:18:37;100484.59;;;13.34;100.00
18765;BME280;9511;54.242;12.448;2023-07-31T05:21:04;100467.81;;;13.37;100.00
18765;BME280;9511;54.242;12.448;2023-07-31T05:23:33;100463.50;;;13.49;100.00
18765;BME280;9511;54.242;12.448;2023-07-31T05:26:04;100469.69;;;13.48;100.00
18765;BME280;9511;54.242;12.448;2023-07-31T05:28:31;100468.81;;;13.52;100.00
18765;BME280;9511;54.242;12.448;2023-07-31T05:30:59;100470.69;;;13.60;100.00
18765;BME280;9511;54.242;12.448;2023-07-31T05:33:27;100464.53;;;13.65;100.00
18765;BME280;9511;54.242;12.448;2023-07-31T05:35:54;100453.94;;;13.76;100.00
18765;BME280;9511;54.242;12.448;2023-07-31T05:38:21;100457.59;;;13.90;100.00
18765;BME280;9511;54.242;12.448;2023-07-31T05:40:50;100468.22;;;13.90;100.00
18765;BME280;9511;54.242;12.448;2023-07-31T05:43:17;100455.88;;;13.95;100.00
18765;BME280;9511;54.242;12.448;2023-07-31T05:45:45;100459.44;;;14.00;100.00
18765;BME280;9511;54.242;12.448;2023-07-31T05:48:12;100461.22;;;14.04;100.00
18765;BME280;9511;54.242;12.448;2023-07-31T05:50:39;100455.03;;;14.08;100.00
18765;BME280;9511;54.242;12.448;2023-07-31T05:53:07;100466.63;;;14.17;100.00
18765;BME280;9511;54.242;12.448;2023-07-31T05:55:34;100453.34;;;14.20;100.00
18765;BME280;9511;54.242;12.448;2023-07-31T05:58:03;100447.16;;;14.25;100.00
18765;BME280;9511;54.242;12.448;2023-07-31T06:00:30;100440.16;;;14.40;100.00
18765;BME280;9511;54.242;12.448;2023-07-31T06:02:58;100442.00;;;14.56;100.00
18765;BME280;9511;54.242;12.448;2023-07-31T06:05:25;100446.44;;;14.52;100.00
18765;BME280;9511;54.242;12.448;2023-07-31T06:07:54;100446.47;;;14.63;100.00
18765;BME280;9511;54.242;12.448;2023-07-31T06:10:21;100445.63;;;14.78;100.00
18765;BME280;9511;54.242;12.448;2023-07-31T06:12:49;100450.06;;;14.85;100.00
18765;BME280;9511;54.242;12.448;2023-07-31T06:15:17;100449.19;;;14.80;100.00
18765;BME280;9511;54.242;12.448;2023-07-31T06:17:45;100451.00;;;14.85;100.00
18765;BME280;9511;54.242;12.448;2023-07-31T06:20:12;100434.16;;;14.97;100.00
18765;BME280;9511;54.242;12.448;2023-07-31T06:22:39;100422.59;;;15.06;100.00
18765;BME280;9511;54.242;12.448;2023-07-31T06:25:07;100425.25;;;15.13;100.00
18765;BME280;9511;54.242;12.448;2023-07-31T06:27:34;100427.94;;;15.13;100.00
18765;BME280;9511;54.242;12.448;2023-07-31T06:30:01;100430.63;;;15.30;100.00
18765;BME280;9511;54.242;12.448;2023-07-31T06:32:30;100423.50;;;15.22;100.00
18765;BME280;9511;54.242;12.448;2023-07-31T06:34:57;100423.50;;;15.31;100.00
18765;BME280;9511;54.242;12.448;2023-07-31T06:37:24;100434.16;;;15.31;100.00
18765;BME280;9511;54.242;12.448;2023-07-31T06:39:52;100438.63;;;15.33;100.00
18765;BME280;9511;54.242;12.448;2023-07-31T06:42:19;100440.41;;;15.47;100.00
18765;BME280;9511;54.242;12.448;2023-07-31T06:44:47;100432.41;;;15.45;100.00
18765;BME280;9511;54.242;12.448;2023-07-31T06:47:14;100427.97;;;15.46;100.00
18765;BME280;9511;54.242;12.448;2023-07-31T06:49:42;100419.06;;;15.48;100.00
18765;BME280;9511;54.242;12.448;2023-07-31T06:52:10;100416.41;;;15.51;100.00
18765;BME280;9511;54.242;12.448;2023-07-31T06:54:37;100409.28;;;15.52;100.00
18765;BME280;9511;54.242;12.448;2023-07-31T06:57:04;100403.09;;;15.65;100.00
18765;BME280;9511;54.242;12.448;2023-07-31T06:59:32;100400.41;;;15.62;100.00
18765;BME280;9511;54.242;12.448;2023-07-31T07:01:59;100402.22;;;15.68;100.00
18765;BME280;9511;54.242;12.448;2023-07-31T07:04:26;100410.19;;;15.74;100.00
18765;BME280;9511;54.242;12.448;2023-07-31T07:06:55;100411.94;;;15.85;100.00
18765;BME280;9511;54.242;12.448;2023-07-31T07:09:22;100414.59;;;15.88;100.00
18765;BME280;9511;54.242;12.448;2023-07-31T07:11:49;100415.50;;;15.86;100.00
18765;BME280;9511;54.242;12.448;2023-07-31T07:14:16;100411.03;;;15.94;100.00
18765;BME280;9511;54.242;12.448;2023-07-31T07:16:43;100403.94;;;15.93;100.00
18765;BME280;9511;54.242;12.448;2023-07-31T07:19:11;100403.91;;;16.02;100.00
18765;BME280;9511;54.242;12.448;2023-07-31T07:21:38;100409.25;;;16.01;100.00
18765;BME280;9511;54.242;12.448;2023-07-31T07:24:06;100398.59;;;15.96;100.00
18765;BME280;9511;54.242;12.448;2023-07-31T07:26:34;100406.59;;;15.91;100.00
18765;BME280;9511;54.242;12.448;2023-07-31T07:29:01;100402.16;;;15.95;100.00
18765;BME280;9511;54.242;12.448;2023-07-31T07:31:28;100397.69;;;15.94;100.00
18765;BME280;9511;54.242;12.448;2023-07-31T07:33:55;100391.50;;;15.89;100.00
18765;BME280;9511;54.242;12.448;2023-07-31T07:36:23;100375.41;;;16.13;100.00
18765;BME280;9511;54.242;12.448;2023-07-31T07:38:50;100378.94;;;16.15;100.00
18765;BME280;9511;54.242;12.448;2023-07-31T07:41:19;100391.38;;;16.26;100.00
18765;BME280;9511;54.242;12.448;2023-07-31T07:43:46;100389.53;;;16.37;100.00
18765;BME280;9511;54.242;12.448;2023-07-31T07:46:13;100392.16;;;16.52;100.00
18765;BME280;9511;54.242;12.448;2023-07-31T07:48:41;100393.84;;;16.75;100.00
18765;BME280;9511;54.242;12.448;2023-07-31T07:51:08;100387.53;;;16.86;100.00
18765;BME280;9511;54.242;12.448;2023-07-31T07:53:35;100394.69;;;16.83;100.00
18765;BME280;9511;54.242;12.448;2023-07-31T07:56:03;100391.97;;;16.87;100.00
18765;BME280;9511;54.242;12.448;2023-07-31T07:58:31;100393.84;;;16.73;100.00
18765;BME280;9511;54.242;12.448;2023-07-31T08:00:58;100387.59;;;16.76;100.00
18765;BME280;9511;54.242;12.448;2023-07-31T08:03:26;100384.06;;;16.64;100.00
18765;BME280;9511;54.242;12.448;2023-07-31T08:05:57;100386.72;;;16.72;100.00
18765;BME280;9511;54.242;12.448;2023-07-31T08:08:25;100381.31;;;16.83;100.00
18765;BME280;9511;54.242;12.448;2023-07-31T08:10:52;100382.94;;;17.05;100.00
18765;BME280;9511;54.242;12.448;2023-07-31T08:13:19;100372.91;;;17.35;99.94
18765;BME280;9511;54.242;12.448;2023-07-31T08:15:48;100368.38;;;17.44;98.06
18765;BME280;9511;54.242;12.448;2023-07-31T08:18:15;100377.28;;;17.43;96.63
18765;BME280;9511;54.242;12.448;2023-07-31T08:20:43;100375.50;;;17.44;95.86
18765;BME280;9511;54.242;12.448;2023-07-31T08:23:10;100376.31;;;17.49;94.87
18765;BME280;9511;54.242;12.448;2023-07-31T08:25:39;100374.69;;;17.31;94.53
18765;BME280;9511;54.242;12.448;2023-07-31T08:28:06;100379.28;;;17.18;93.97
18765;BME280;9511;54.242;12.448;2023-07-31T08:30:34;100365.09;;;17.09;94.62
18765;BME280;9511;54.242;12.448;2023-07-31T08:33:02;100371.44;;;16.94;94.72
18765;BME280;9511;54.242;12.448;2023-07-31T08:35:30;100378.59;;;16.89;94.80
18765;BME280;9511;54.242;12.448;2023-07-31T08:37:57;100365.25;;;16.89;95.58
18765;BME280;9511;54.242;12.448;2023-07-31T08:40:25;100365.31;;;16.81;95.38
18765;BME280;9511;54.242;12.448;2023-07-31T08:42:54;100368.00;;;16.73;96.48
18765;BME280;9511;54.242;12.448;2023-07-31T08:45:22;100364.44;;;16.73;96.40
18765;BME280;9511;54.242;12.448;2023-07-31T08:47:51;100375.13;;;16.76;95.91
18765;BME280;9511;54.242;12.448;2023-07-31T08:50:20;100370.81;;;16.48;94.82
18765;BME280;9511;54.242;12.448;2023-07-31T08:52:49;100372.59;;;16.45;95.48
18765;BME280;9511;54.242;12.448;2023-07-31T08:55:17;100383.25;;;16.50;95.91
18765;BME280;9511;54.242;12.448;2023-07-31T08:57:51;100377.91;;;16.50;95.66
18765;BME280;9511;54.242;12.448;2023-07-31T09:00:19;100376.13;;;16.52;95.74
18765;BME280;9511;54.242;12.448;2023-07-31T09:02:54;100379.63;;;16.65;95.94
18765;BME280;9511;54.242;12.448;2023-07-31T09:05:26;100376.03;;;16.73;95.79
18765;BME280;9511;54.242;12.448;2023-07-31T09:07:55;100367.97;;;16.83;94.64
18765;BME280;9511;54.242;12.448;2023-07-31T09:10:23;100361.66;;;16.93;93.84
18765;BME280;9511;54.242;12.448;2023-07-31T09:12:51;100368.56;;;17.18;92.57
18765;BME280;9511;54.242;12.448;2023-07-31T09:15:19;100365.53;;;17.60;92.11
18765;BME280;9511;54.242;12.448;2023-07-31T09:17:47;100363.69;;;17.66;90.20
18765;BME280;9511;54.242;12.448;2023-07-31T09:20:15;100360.19;;;17.58;89.53
18765;BME280;9511;54.242;12.448;2023-07-31T09:22:44;100352.09;;;17.67;88.28
18765;BME280;9511;54.242;12.448;2023-07-31T09:25:15;100349.13;;;17.95;87.54
18765;BME280;9511;54.242;12.448;2023-07-31T09:27:47;100349.06;;;18.01;86.50
18765;BME280;9511;54.242;12.448;2023-07-31T09:30:15;100346.16;;;18.19;85.06
18765;BME280;9511;54.242;12.448;2023-07-31T09:32:42;100345.63;;;18.57;83.85
18765;BME280;9511;54.242;12.448;2023-07-31T09:35:14;100344.06;;;19.03;83.68
18765;BME280;9511;54.242;12.448;2023-07-31T09:37:49;100341.53;;;18.95;82.55
18765;BME280;9511;54.242;12.448;2023-07-31T09:40:27;100341.94;;;18.66;82.72
18765;BME280;9511;54.242;12.448;2023-07-31T09:43:00;100351.78;;;18.67;82.48
18765;BME280;9511;54.242;12.448;2023-07-31T09:45:27;100348.41;;;18.53;81.35
18765;BME280;9511;54.242;12.448;2023-07-31T09:47:56;100345.63;;;18.57;81.19
18765;BME280;9511;54.242;12.448;2023-07-31T09:50:24;100339.00;;;18.88;81.99
18765;BME280;9511;54.242;12.448;2023-07-31T09:52:53;100335.00;;;19.12;81.73
18765;BME280;9511;54.242;12.448;2023-07-31T09:55:20;100335.16;;;19.04;80.11
18765;BME280;9511;54.242;12.448;2023-07-31T09:57:49;100324.25;;;19.13;79.35
18765;BME280;9511;54.242;12.448;2023-07-31T10:00:17;100325.59;;;18.86;78.20
18765;BME280;9511;54.242;12.448;2023-07-31T10:02:46;100319.84;;;18.50;78.22
18765;BME280;9511;54.242;12.448;2023-07-31T10:05:15;100323.47;;;18.48;78.10
18765;BME280;9511;54.242;12.448;2023-07-31T10:07:46;100317.16;;;18.50;78.39
18765;BME280;9511;54.242;12.448;2023-07-31T10:10:20;100322.63;;;18.44;78.49
18765;BME280;9511;54.242;12.448;2023-07-31T10:12:48;100324.59;;;18.31;78.23
18765;BME280;9511;54.242;12.448;2023-07-31T10:15:16;100314.53;;;18.49;78.27
18765;BME280;9511;54.242;12.448;2023-07-31T10:17:43;100307.31;;;18.54;78.12
18765;BME280;9511;54.242;12.448;2023-07-31T10:20:11;100319.28;;;18.27;78.34
18765;BME280;9511;54.242;12.448;2023-07-31T10:22:38;100307.78;;;18.20;78.95
18765;BME280;9511;54.242;12.448;2023-07-31T10:25:07;100317.53;;;18.23;78.33
18765;BME280;9511;54.242;12.448;2023-07-31T10:27:38;100300.41;;;18.35;78.70
18765;BME280;9511;54.242;12.448;2023-07-31T10:30:08;100309.75;;;18.69;79.49
18765;BME280;9511;54.242;12.448;2023-07-31T10:32:38;100318.72;;;18.70;78.55
18765;BME280;9511;54.242;12.448;2023-07-31T10:35:07;100311.63;;;18.64;78.25
18765;BME280;9511;54.242;12.448;2023-07-31T10:37:36;100309.03;;;18.58;78.66
18765;BME280;9511;54.242;12.448;2023-07-31T10:40:06;100310.47;;;18.80;77.60
18765;BME280;9511;54.242;12.448;2023-07-31T10:42:34;100298.94;;;18.77;76.74
18765;BME280;9511;54.242;12.448;2023-07-31T10:45:05;100295.25;;;18.84;77.15
18765;BME280;9511;54.242;12.448;2023-07-31T10:47:37;100302.44;;;18.80;77.45
18765;BME280;9511;54.242;12.448;2023-07-31T10:50:16;100308.03;;;18.65;78.02
18765;BME280;9511;54.242;12.448;2023-07-31T10:52:46;100305.59;;;18.48;77.54
18765;BME280;9511;54.242;12.448;2023-07-31T10:55:29;100300.34;;;18.41;78.44
18765;BME280;9511;54.242;12.448;2023-07-31T10:57:58;100298.72;;;18.29;78.99
18765;BME280;9511;54.242;12.448;2023-07-31T11:00:33;100291.44;;;18.39;78.97
18765;BME280;9511;54.242;12.448;2023-07-31T11:03:02;100293.22;;;18.40;78.70
18765;BME280;9511;54.242;12.448;2023-07-31T11:05:50;100293.16;;;18.44;79.77
18765;BME280;9511;54.242;12.448;2023-07-31T11:08:21;100283.34;;;18.43;79.94
18765;BME280;9511;54.242;12.448;2023-07-31T11:10:51;100294.13;;;18.39;79.77
18765;BME280;9511;54.242;12.448;2023-07-31T11:13:34;100282.47;;;18.43;80.33
18765;BME280;9511;54.242;12.448;2023-07-31T11:16:07;100283.44;;;18.37;81.19
18765;BME280;9511;54.242;12.448;2023-07-31T11:18:35;100282.59;;;18.34;80.85
18765;BME280;9511;54.242;12.448;2023-07-31T11:21:02;100279.06;;;18.31;81.16
18765;BME280;9511;54.242;12.448;2023-07-31T11:23:30;100279.00;;;18.35;81.15
18765;BME280;9511;54.242;12.448;2023-07-31T11:25:59;100267.59;;;18.22;81.47
18765;BME280;9511;54.242;12.448;2023-07-31T11:28:31;100258.59;;;18.27;81.85
18765;BME280;9511;54.242;12.448;2023-07-31T11:30:58;100254.13;;;18.26;82.65
18765;BME280;9511;54.242;12.448;2023-07-31T11:33:27;100259.66;;;18.14;83.71
18765;BME280;9511;54.242;12.448;2023-07-31T11:35:54;100262.34;;;18.14;84.90
18765;BME280;9511;54.242;12.448;2023-07-31T11:38:22;100257.66;;;18.28;85.56
18765;BME280;9511;54.242;12.448;2023-07-31T11:40:51;100260.44;;;18.24;84.93
18765;BME280;9511;54.242;12.448;2023-07-31T11:43:19;100259.47;;;18.29;86.29
18765;BME280;9511;54.242;12.448;2023-07-31T11:45:47;100260.50;;;18.18;86.66
18765;BME280;9511;54.242;12.448;2023-07-31T11:48:19;100266.00;;;18.09;87.64
18765;BME280;9511;54.242;12.448;2023-07-31T11:50:49;100265.31;;;17.93;88.41
18765;BME280;9511;54.242;12.448;2023-07-31T11:53:21;100269.84;;;17.86;89.79
18765;BME280;9511;54.242;12.448;2023-07-31T11:55:52;100273.41;;;17.87;90.03
18765;BME280;9511;54.242;12.448;2023-07-31T11:58:20;100274.34;;;17.83;90.75
18765;BME280;9511;54.242;12.448;2023-07-31T12:00:48;100274.41;;;17.80;91.08
18765;BME280;9511;54.242;12.448;2023-07-31T12:03:16;100278.03;;;17.69;91.46
18765;BME280;9511;54.242;12.448;2023-07-31T12:05:43;100276.25;;;17.74;93.37
18765;BME280;9511;54.242;12.448;2023-07-31T12:08:12;100260.31;;;17.59;94.09
18765;BME280;9511;54.242;12.448;2023-07-31T12:10:39;100262.03;;;17.65;94.81
18765;BME280;9511;54.242;12.448;2023-07-31T12:13:09;100252.06;;;17.84;95.85
18765;BME280;9511;54.242;12.448;2023-07-31T12:15:40;100260.03;;;17.87;96.62
18765;BME280;9511;54.242;12.448;2023-07-31T12:18:10;100243.03;;;17.91;97.38
18765;BME280;9511;54.242;12.448;2023-07-31T12:20:41;100240.56;;;17.75;97.65
18765;BME280;9511;54.242;12.448;2023-07-31T12:23:20;100230.00;;;17.60;98.07
18765;BME280;9511;54.242;12.448;2023-07-31T12:26:00;100229.16;;;17.57;98.20
18765;BME280;9511;54.242;12.448;2023-07-31T12:28:27;100233.72;;;17.50;99.58
18765;BME280;9511;54.242;12.448;2023-07-31T12:30:57;100228.47;;;17.41;100.00
18765;BME280;9511;54.242;12.448;2023-07-31T12:33:31;100233.81;;;17.41;100.00
18765;BME280;9511;54.242;12.448;2023-07-31T12:36:00;100234.94;;;17.18;100.00
18765;BME280;9511;54.242;12.448;2023-07-31T12:38:30;100236.94;;;16.95;100.00
18765;BME280;9511;54.242;12.448;2023-07-31T12:40:57;100222.72;;;16.91;100.00
18765;BME280;9511;54.242;12.448;2023-07-31T12:43:25;100221.59;;;17.17;100.00
18765;BME280;9511;54.242;12.448;2023-07-31T12:45:54;100218.19;;;17.01;100.00
18765;BME280;9511;54.242;12.448;2023-07-31T12:48:22;100219.88;;;17.08;100.00
18765;BME280;9511;54.242;12.448;2023-07-31T12:50:49;100234.34;;;16.87;100.00
18765;BME280;9511;54.242;12.448;2023-07-31T12:53:16;100224.56;;;16.86;100.00
18765;BME280;9511;54.242;12.448;2023-07-31T12:55:45;100224.56;;;16.85;100.00
18765;BME280;9511;54.242;12.448;2023-07-31T12:58:12;100221.00;;;16.87;100.00
18765;BME280;9511;54.242;12.448;2023-07-31T13:00:40;100220.06;;;16.90;100.00
18765;BME280;9511;54.242;12.448;2023-07-31T13:03:07;100211.00;;;17.09;100.00
18765;BME280;9511;54.242;12.448;2023-07-31T13:05:34;100211.94;;;17.02;100.00
18765;BME280;9511;54.242;12.448;2023-07-31T13:08:02;100194.88;;;17.15;100.00
18765;BME280;9511;54.242;12.448;2023-07-31T13:10:29;100198.34;;;17.27;100.00
18765;BME280;9511;54.242;12.448;2023-07-31T13:12:58;100185.75;;;17.35;100.00
18765;BME280;9511;54.242;12.448;2023-07-31T13:15:25;100197.91;;;17.60;100.00
18765;BME280;9511;54.242;12.448;2023-07-31T13:17:52;100198.66;;;17.71;100.00
18765;BME280;9511;54.242;12.448;2023-07-31T13:20:20;100195.88;;;17.84;100.00
18765;BME280;9511;54.242;12.448;2023-07-31T13:22:47;100211.16;;;17.69;100.00
18765;BME280;9511;54.242;12.448;2023-07-31T13:25:14;100207.00;;;17.47;100.00
18765;BME280;9511;54.242;12.448;2023-07-31T13:27:41;100206.34;;;17.25;100.00
18765;BME280;9511;54.242;12.448;2023-07-31T13:30:10;100205.31;;;17.37;100.00
18765;BME280;9511;54.242;12.448;2023-07-31T13:32:38;100197.41;;;17.29;100.00
18765;BME280;9511;54.242;12.448;2023-07-31T13:35:05;100191.25;;;17.21;100.00
18765;BME280;9511;54.242;12.448;2023-07-31T13:37:33;100185.84;;;17.27;100.00
18765;BME280;9511;54.242;12.448;2023-07-31T13:40:00;100183.97;;;17.34;100.00
18765;BME280;9511;54.242;12.448;2023-07-31T13:42:30;100178.69;;;17.26;100.00
18765;BME280;9511;54.242;12.448;2023-07-31T13:44:57;100181.63;;;17.03;100.00
18765;BME280;9511;54.242;12.448;2023-07-31T13:47:26;100191.56;;;16.92;100.00
18765;BME280;9511;54.242;12.448;2023-07-31T13:49:53;100190.72;;;16.87;100.00
18765;BME280;9511;54.242;12.448;2023-07-31T13:52:20;100191.63;;;16.84;100.00
18765;BME280;9511;54.242;12.448;2023-07-31T13:54:47;100196.06;;;16.88;100.00
18765;BME280;9511;54.242;12.448;2023-07-31T13:57:15;100188.91;;;16.92;100.00
18765;BME280;9511;54.242;12.448;2023-07-31T13:59:43;100183.53;;;16.93;100.00
18765;BME280;9511;54.242;12.448;2023-07-31T14:02:10;100176.50;;;16.83;100.00
18765;BME280;9511;54.242;12.448;2023-07-31T14:04:39;100174.69;;;16.88;100.00
18765;BME280;9511;54.242;12.448;2023-07-31T14:07:06;100167.38;;;17.03;100.00
18765;BME280;9511;54.242;12.448;2023-07-31T14:09:34;100177.31;;;16.90;100.00
18765;BME280;9511;54.242;12.448;2023-07-31T14:12:01;100172.97;;;16.80;100.00
18765;BME280;9511;54.242;12.448;2023-07-31T14:14:29;100167.50;;;16.93;100.00
18765;BME280;9511;54.242;12.448;2023-07-31T14:16:56;100174.59;;;16.97;100.00
18765;BME280;9511;54.242;12.448;2023-07-31T14:19:23;100161.97;;;17.09;100.00
18765;BME280;9511;54.242;12.448;2023-07-31T14:21:52;100161.16;;;17.02;100.00
18765;BME280;9511;54.242;12.448;2023-07-31T14:24:19;100147.94;;;16.90;100.00
18765;BME280;9511;54.242;12.448;2023-07-31T14:26:47;100136.31;;;16.94;100.00
18765;BME280;9511;54.242;12.448;2023-07-31T14:29:14;100131.13;;;16.82;100.00
18765;BME280;9511;54.242;12.448;2023-07-31T14:31:41;100141.81;;;16.79;100.00
18765;BME280;9511;54.242;12.448;2023-07-31T14:34:08;100143.53;;;16.84;100.00
18765;BME280;9511;54.242;12.448;2023-07-31T14:36:36;100132.84;;;16.86;100.00
18765;BME280;9511;54.242;12.448;2023-07-31T14:39:04;100131.13;;;16.79;100.00
18765;BME280;9511;54.242;12.448;2023-07-31T14:41:32;100151.66;;;16.77;100.00
18765;BME280;9511;54.242;12.448;2023-07-31T14:43:59;100148.97;;;16.77;100.00
18765;BME280;9511;54.242;12.448;2023-07-31T14:46:26;100161.38;;;16.82;100.00
18765;BME280;9511;54.242;12.448;2023-07-31T14:48:53;100160.50;;;16.79;100.00
18765;BME280;9511;54.242;12.448;2023-07-31T14:51:21;100138.28;;;16.77;100.00
18765;BME280;9511;54.242;12.448;2023-07-31T14:53:48;100131.94;;;16.85;100.00
18765;BME280;9511;54.242;12.448;2023-07-31T14:56:17;100126.53;;;16.94;100.00
18765;BME280;9511;54.242;12.448;2023-07-31T14:58:44;100123.81;;;16.96;100.00
18765;BME280;9511;54.242;12.448;2023-07-31T15:01:11;100117.56;;;16.97;100.00
18765;BME280;9511;54.242;12.448;2023-07-31T15:03:39;100115.78;;;16.99;100.00
18765;BME280;9511;54.242;12.448;2023-07-31T15:06:06;100119.44;;;16.90;100.00
18765;BME280;9511;54.242;12.448;2023-07-31T15:08:34;100127.44;;;16.92;100.00
18765;BME280;9511;54.242;12.448;2023-07-31T15:11:02;100123.94;;;16.85;100.00
18765;BME280;9511;54.242;12.448;2023-07-31T15:13:31;100129.16;;;16.96;100.00
18765;BME280;9511;54.242;12.448;2023-07-31T15:15:58;100122.91;;;16.97;100.00
18765;BME280;9511;54.242;12.448;2023-07-31T15:18:26;100136.41;;;16.88;100.00
18765;BME280;9511;54.242;12.448;2023-07-31T15:20:53;100138.22;;;16.83;100.00
18765;BME280;9511;54.242;12.448;2023-07-31T15:23:21;100135.63;;;16.73;100.00
18765;BME280;9511;54.242;12.448;2023-07-31T15:25:49;100128.41;;;16.83;100.00
18765;BME280;9511;54.242;12.448;2023-07-31T15:28:16;100118.53;;;16.93;100.00
18765;BME280;9511;54.242;12.448;2023-07-31T15:30:45;100132.78;;;16.92;100.00
18765;BME280;9511;54.242;12.448;2023-07-31T15:33:12;100124.81;;;16.89;100.00
18765;BME280;9511;54.242;12.448;2023-07-31T15:35:40;100129.28;;;16.87;100.00
18765;BME280;9511;54.242;12.448;2023-07-31T15:38:08;100112.38;;;16.86;100.00
18765;BME280;9511;54.242;12.448;2023-07-31T15:40:35;100095.47;;;16.83;100.00
18765;BME280;9511;54.242;12.448;2023-07-31T15:43:02;100089.31;;;16.78;100.00
18765;BME280;9511;54.242;12.448;2023-07-31T15:45:30;100084.88;;;16.77;100.00
18765;BME280;9511;54.242;12.448;2023-07-31T15:47:58;100098.28;;;16.67;100.00
18765;BME280;9511;54.242;12.448;2023-07-31T15:50:26;100099.25;;;16.60;100.00
18765;BME280;9511;54.242;12.448;2023-07-31T15:52:53;100101.13;;;16.52;100.00